Oxford, KS

8:22 AM CST on January 29, 2015 (GMT -0600)
Rural | Change Station
CLOSE
Current Station
Personal Weather Station
Location: Udall, KS
Elevation: 1211 ft
Nearby Weather Stations

Elev 1211 ft 37.36 °N, 97.12 °W | Updated 7 minutes ago

Mostly Cloudy
Mostly Cloudy
41.2 °F
Feels Like 34 °F
N
14.0
Wind Variable Wind from NE

Today
High -- | Low -- °F
--% Chance of Precip.
Yesterday
High -- | Low -- °F
Precip. -- in
7:34 AM 5:49 PM
Waxing Gibbous, 74% visible
Pressure 30.35 in
Visibility 10.0 miles
Clouds Mostly Cloudy 3100 ft
Windchill 34 °F
Dew Point 29 °F
Humidity 62%
Rainfall 0.00 in
Snow Depth Not available.
UV 0 out of 12
Pollen 2.10 out of 12
Air Quality Not available.
Flu Activity Not available.
SPECI KWLD 291419Z AUTO 35014KT 10SM BKN031 06/M01 A3035 RMK AO2 T00561006

More Conditions Fewer Conditions

Pressure 30.35 in
Visibility 10.0 miles
Clouds Mostly Cloudy 3100 ft
Windchill 34 °F
Dew Point 29 °F
Humidity 62%
Rainfall 0.00 in
Snow Depth Not available.
UV 0 out of 12
Pollen 2.10 out of 12
Air Quality Not available.
Flu Activity Not available.
SPECI KWLD 291419Z AUTO 35014KT 10SM BKN031 06/M01 A3035 RMK AO2 T00561006

More Conditions Fewer Conditions

10-Day Weather Forecast

Almanac

Astronomy

Jan. 29, 2015 Rise Set
Actual Time
Civil Twilight
Nautical Twilight
Astronomical Twilight
Moon
Length of Visible Light
Length of Day
Tomorrow will be .
, % of the Moon is Illuminated

Today's Extremes

State Highs State Lows

Community

WunderPhotos

Upload Photos

1,791,434 photos uploaded!

WunderBlogs® & News

Nearby

Air Quality

  Air Quality AQ Index Pollutant
Not available.

Snow Depth

Station Depth Elevation

Earthquake Activity

City Distance Mag. Time & Date
Minimum magnitude displayed is 2.5.

Coastal Water Temperatures

Place Temperature

Nearby Weather Stations